Time;durP1;ratioP1;P1;durP2;ratioP2;P2;SDS_P1;SDS_P2;PMS_P1;PMS_P2;Temp;Humidity;BMP_temperature;BMP_pressure;BME280_temperature;BME280_humidity;BME280_pressure;Samples;Min_cycle;Max_cycle;Signal;HPM_P1;HPM_P2
2023/03/15 00:00:55;;;;;;;1.63;0.70;;;;;;;;;;5078061;28;20205;-23
2023/03/15 00:03:23;;;;;;;0.80;0.80;;;;;;;;;;5084131;28;20204;-26
2023/03/15 00:05:51;;;;;;;1.67;1.00;;;;;;;;;;5094607;28;20213;-27
2023/03/15 00:08:18;;;;;;;0.87;0.83;;;;;;;;;;5089377;28;20217;-28
2023/03/15 00:10:46;;;;;;;1.23;1.20;;;;;;;;;;5073223;28;20211;-25
2023/03/15 00:13:15;;;;;;;1.10;0.90;;;;;;;;;;5072639;28;20200;-25
2023/03/15 00:15:46;;;;;;;0.87;0.63;;;;;;;;;;5083833;28;20272;-27
2023/03/15 00:18:13;;;;;;;1.97;1.37;;;;;;;;;;5075923;28;20229;-27
2023/03/15 00:20:40;;;;;;;2.33;0.90;;;;;;;;;;5068510;28;20205;-24
2023/03/15 00:23:07;;;;;;;1.00;0.90;;;;;;;;;;5071266;28;20216;-24
2023/03/15 00:25:34;;;;;;;0.90;0.90;;;;;;;;;;5076324;28;20204;-26
2023/03/15 00:28:01;;;;;;;0.90;0.90;;;;;;;;;;5087282;28;20237;-25
2023/03/15 00:30:30;;;;;;;0.90;0.90;;;;;;;;;;5070774;28;20217;-26
2023/03/15 00:32:57;;;;;;;0.83;0.80;;;;;;;;;;5075176;28;20202;-25
2023/03/15 00:35:24;;;;;;;2.50;1.23;;;;;;;;;;5068125;28;20212;-28
2023/03/15 00:37:54;;;;;;;2.10;1.30;;;;;;;;;;5084277;28;20236;-26
2023/03/15 00:40:21;;;;;;;1.20;1.10;;;;;;;;;;5072118;28;20231;-27
2023/03/15 00:42:49;;;;;;;1.57;1.00;;;;;;;;;;5069844;28;20205;-26
2023/03/15 00:45:16;;;;;;;0.70;0.70;;;;;;;;;;5078872;28;20209;-27
2023/03/15 00:47:45;;;;;;;1.40;1.03;;;;;;;;;;5077936;28;20224;-23
2023/03/15 00:50:12;;;;;;;2.47;1.10;;;;;;;;;;5086645;28;20219;-28
2023/03/15 00:52:40;;;;;;;0.80;0.80;;;;;;;;;;5081624;28;20201;-27
2023/03/15 00:55:12;;;;;;;0.90;0.90;;;;;;;;;;5075018;28;20209;-22
2023/03/15 00:57:39;;;;;;;2.10;1.10;;;;;;;;;;5066141;28;20220;-25
2023/03/15 01:00:09;;;;;;;1.60;1.17;;;;;;;;;;5080358;28;20232;-36
2023/03/15 01:02:37;;;;;;;1.50;1.20;;;;;;;;;;5084143;28;20213;-26
2023/03/15 01:05:06;;;;;;;2.27;1.43;;;;;;;;;;5066913;28;20255;-26
2023/03/15 01:07:33;;;;;;;1.20;1.10;;;;;;;;;;5064928;28;20229;-24
2023/03/15 01:10:01;;;;;;;1.57;1.33;;;;;;;;;;5077591;28;20205;-27
2023/03/15 01:12:28;;;;;;;1.70;1.40;;;;;;;;;;5069737;28;20205;-23
2023/03/15 01:14:55;;;;;;;1.43;1.30;;;;;;;;;;5083973;28;20197;-27
2023/03/15 01:17:22;;;;;;;1.80;1.70;;;;;;;;;;5085705;28;20240;-27
2023/03/15 01:19:50;;;;;;;1.90;1.80;;;;;;;;;;5081526;28;20208;-28
2023/03/15 01:22:19;;;;;;;4.50;1.80;;;;;;;;;;5078818;28;20208;-26
2023/03/15 01:24:46;;;;;;;4.40;2.90;;;;;;;;;;5074467;28;20201;-24
2023/03/15 01:27:14;;;;;;;2.10;1.80;;;;;;;;;;5067271;28;20263;-28
2023/03/15 01:29:41;;;;;;;1.73;1.63;;;;;;;;;;5073212;28;20236;-25
2023/03/15 01:32:08;;;;;;;2.07;1.87;;;;;;;;;;5072929;28;20213;-25
2023/03/15 01:34:35;;;;;;;2.57;2.10;;;;;;;;;;5087880;28;20204;-24
2023/03/15 01:37:02;;;;;;;2.20;1.73;;;;;;;;;;5081047;28;20221;-25
2023/03/15 01:39:31;;;;;;;2.80;2.03;;;;;;;;;;5076327;28;20225;-26
2023/03/15 01:41:58;;;;;;;1.90;1.80;;;;;;;;;;5087994;28;20236;-28
2023/03/15 01:44:45;;;;;;;2.23;2.00;;;;;;;;;;5076199;28;20216;-24
2023/03/15 01:47:12;;;;;;;4.73;2.30;;;;;;;;;;5075917;28;20232;-25
2023/03/15 01:49:39;;;;;;;2.30;2.07;;;;;;;;;;5085488;28;20204;-26
2023/03/15 01:52:08;;;;;;;2.37;2.00;;;;;;;;;;5082345;28;20233;-24
2023/03/15 01:54:40;;;;;;;3.03;2.00;;;;;;;;;;5066108;28;20217;-26
2023/03/15 01:57:09;;;;;;;3.77;2.10;;;;;;;;;;5066295;28;20217;-28
2023/03/15 01:59:39;;;;;;;6.83;2.07;;;;;;;;;;5067227;28;20238;-23
2023/03/15 02:02:06;;;;;;;3.87;2.20;;;;;;;;;;5069458;28;20220;-24
2023/03/15 02:04:35;;;;;;;1.90;1.80;;;;;;;;;;5073388;28;20207;-27
2023/03/15 02:07:03;;;;;;;5.67;2.30;;;;;;;;;;5065875;28;20222;-26
2023/03/15 02:09:33;;;;;;;2.43;2.20;;;;;;;;;;5067020;28;20299;-24
2023/03/15 02:12:02;;;;;;;3.17;2.47;;;;;;;;;;5070932;28;20494;-28
2023/03/15 02:14:30;;;;;;;4.13;2.10;;;;;;;;;;5065251;28;20209;-25
2023/03/15 02:16:58;;;;;;;6.10;2.60;;;;;;;;;;5069539;28;20249;-29
2023/03/15 02:19:30;;;;;;;6.43;2.60;;;;;;;;;;5082053;28;20231;-27
2023/03/15 02:22:02;;;;;;;4.53;2.60;;;;;;;;;;5077827;28;20198;-23
2023/03/15 02:24:32;;;;;;;4.87;2.70;;;;;;;;;;5068133;28;20205;-27
2023/03/15 02:27:00;;;;;;;4.47;2.87;;;;;;;;;;5078930;28;20225;-26
2023/03/15 02:29:29;;;;;;;3.87;2.80;;;;;;;;;;5073917;28;20197;-24
2023/03/15 02:31:56;;;;;;;2.67;2.47;;;;;;;;;;5078529;28;20205;-26
2023/03/15 02:34:24;;;;;;;4.03;2.60;;;;;;;;;;5069676;28;20212;-25
2023/03/15 02:36:52;;;;;;;3.60;2.27;;;;;;;;;;5065635;28;20228;-24
2023/03/15 02:39:20;;;;;;;5.73;2.50;;;;;;;;;;5071571;28;20225;-26
2023/03/15 02:41:50;;;;;;;3.43;2.50;;;;;;;;;;5079431;28;20205;-26
2023/03/15 02:44:19;;;;;;;4.07;2.47;;;;;;;;;;5079715;28;20207;-26
2023/03/15 02:46:48;;;;;;;5.53;2.50;;;;;;;;;;5072744;28;20225;-29
2023/03/15 02:49:16;;;;;;;2.70;2.33;;;;;;;;;;5081589;28;20412;-27
2023/03/15 02:51:43;;;;;;;5.90;2.20;;;;;;;;;;5086603;28;20212;-27
2023/03/15 02:54:10;;;;;;;6.23;2.63;;;;;;;;;;5076168;28;20212;-25
2023/03/15 02:56:37;;;;;;;4.30;2.60;;;;;;;;;;5083445;28;20220;-27
2023/03/15 02:59:05;;;;;;;4.73;1.97;;;;;;;;;;5066835;28;20217;-27
2023/03/15 03:01:35;;;;;;;4.83;2.37;;;;;;;;;;5084914;28;20542;-27
2023/03/15 03:04:04;;;;;;;5.27;2.07;;;;;;;;;;5087574;28;20209;-25
2023/03/15 03:06:31;;;;;;;4.10;2.37;;;;;;;;;;5084665;28;20615;-27
2023/03/15 03:08:58;;;;;;;2.23;1.70;;;;;;;;;;5084997;28;20207;-26
2023/03/15 03:11:25;;;;;;;4.13;2.00;;;;;;;;;;5078996;28;20272;-26
2023/03/15 03:13:52;;;;;;;4.03;1.97;;;;;;;;;;5086445;28;20201;-23
2023/03/15 03:16:21;;;;;;;6.07;1.90;;;;;;;;;;5077733;28;20276;-28
2023/03/15 03:18:50;;;;;;;4.63;1.70;;;;;;;;;;5080934;28;20299;-24
2023/03/15 03:21:18;;;;;;;4.33;1.90;;;;;;;;;;5089806;28;20208;-25
2023/03/15 03:23:46;;;;;;;5.10;1.87;;;;;;;;;;5082579;28;20193;-24
2023/03/15 03:26:15;;;;;;;3.37;1.57;;;;;;;;;;5088482;28;20208;-26
2023/03/15 03:28:43;;;;;;;6.47;1.70;;;;;;;;;;5081258;28;20205;-23
2023/03/15 03:31:16;;;;;;;4.13;1.57;;;;;;;;;;5074681;28;20213;-25
2023/03/15 03:33:43;;;;;;;4.67;1.73;;;;;;;;;;5082806;28;20217;-27
2023/03/15 03:36:11;;;;;;;3.70;1.77;;;;;;;;;;5074948;28;20207;-27
2023/03/15 03:38:40;;;;;;;4.73;1.60;;;;;;;;;;5089312;28;20224;-27
2023/03/15 03:41:07;;;;;;;1.53;1.37;;;;;;;;;;5081122;28;20207;-27
2023/03/15 03:43:34;;;;;;;2.00;1.30;;;;;;;;;;5069543;28;20196;-27
2023/03/15 03:46:02;;;;;;;4.33;1.50;;;;;;;;;;5072248;28;20209;-27
2023/03/15 03:48:29;;;;;;;1.60;1.30;;;;;;;;;;5077628;28;20236;-29
2023/03/15 03:50:57;;;;;;;1.73;1.60;;;;;;;;;;5068774;28;20300;-26
2023/03/15 03:53:24;;;;;;;2.60;1.40;;;;;;;;;;5069198;28;20197;-29
2023/03/15 03:55:53;;;;;;;4.43;1.27;;;;;;;;;;5077126;28;20198;-26
2023/03/15 03:58:20;;;;;;;4.77;1.57;;;;;;;;;;5082951;28;20221;-27
2023/03/15 04:00:48;;;;;;;4.63;1.30;;;;;;;;;;5076510;28;20212;-30
2023/03/15 04:03:15;;;;;;;3.07;1.40;;;;;;;;;;5069490;28;20212;-25
2023/03/15 04:05:42;;;;;;;3.63;1.33;;;;;;;;;;5069054;28;20411;-26
2023/03/15 04:08:09;;;;;;;2.73;1.57;;;;;;;;;;5068101;28;20232;-29
2023/03/15 04:10:36;;;;;;;4.30;1.70;;;;;;;;;;5080507;28;20200;-27
2023/03/15 04:13:04;;;;;;;3.83;2.07;;;;;;;;;;5083252;28;20200;-26
2023/03/15 04:15:32;;;;;;;3.20;1.80;;;;;;;;;;5071754;28;20209;-26
2023/03/15 04:17:59;;;;;;;3.40;1.70;;;;;;;;;;5091595;28;20220;-24
2023/03/15 04:20:27;;;;;;;4.97;1.73;;;;;;;;;;5091210;28;20231;-24
2023/03/15 04:22:54;;;;;;;4.20;1.60;;;;;;;;;;5088900;28;20204;-26
2023/03/15 04:25:25;;;;;;;2.90;1.83;;;;;;;;;;5073756;28;20201;-24
2023/03/15 04:27:58;;;;;;;5.17;1.40;;;;;;;;;;5075470;28;20412;-27
2023/03/15 04:30:27;;;;;;;3.60;1.60;;;;;;;;;;5080893;28;20216;-23
2023/03/15 04:32:57;;;;;;;2.87;1.70;;;;;;;;;;5070997;28;20250;-25
2023/03/15 04:35:25;;;;;;;1.97;1.60;;;;;;;;;;5087639;28;20205;-25
2023/03/15 04:37:52;;;;;;;1.43;1.10;;;;;;;;;;5073370;28;20209;-24
2023/03/15 04:40:19;;;;;;;5.13;1.60;;;;;;;;;;5075569;28;20311;-24
2023/03/15 04:42:46;;;;;;;2.90;1.33;;;;;;;;;;5067076;28;20206;-23
2023/03/15 04:45:13;;;;;;;4.63;1.70;;;;;;;;;;5072277;28;20205;-23
2023/03/15 04:47:42;;;;;;;5.10;1.90;;;;;;;;;;5076882;28;20227;-27
2023/03/15 04:50:09;;;;;;;3.23;1.70;;;;;;;;;;5086710;28;20216;-29
2023/03/15 04:52:36;;;;;;;2.80;1.20;;;;;;;;;;5081697;28;20208;-25
2023/03/15 04:55:03;;;;;;;2.30;1.40;;;;;;;;;;5077162;28;20215;-30
2023/03/15 04:57:30;;;;;;;2.97;1.87;;;;;;;;;;5068997;28;20221;-25
2023/03/15 04:59:58;;;;;;;5.57;1.47;;;;;;;;;;5068227;28;20229;-26
2023/03/15 05:02:25;;;;;;;3.40;1.33;;;;;;;;;;5074476;28;20258;-21
2023/03/15 05:04:53;;;;;;;2.10;1.30;;;;;;;;;;5086380;28;20216;-27
2023/03/15 05:07:20;;;;;;;6.03;1.53;;;;;;;;;;5081173;28;20248;-25
2023/03/15 05:09:47;;;;;;;2.20;1.30;;;;;;;;;;5085660;28;20219;-26
2023/03/15 05:12:14;;;;;;;3.73;1.83;;;;;;;;;;5085939;28;20208;-27
2023/03/15 05:14:42;;;;;;;2.27;1.30;;;;;;;;;;5074765;28;20219;-25
2023/03/15 05:17:09;;;;;;;5.13;1.60;;;;;;;;;;5080275;28;20235;-26
2023/03/15 05:19:36;;;;;;;4.30;1.80;;;;;;;;;;5085839;28;20224;-26
2023/03/15 05:22:05;;;;;;;2.50;1.60;;;;;;;;;;5082385;28;20208;-25
2023/03/15 05:24:32;;;;;;;2.77;1.77;;;;;;;;;;5081206;28;20197;-27
2023/03/15 05:26:59;;;;;;;2.97;1.83;;;;;;;;;;5077982;28;20229;-26
2023/03/15 05:29:26;;;;;;;2.50;1.63;;;;;;;;;;5075997;28;20201;-26
2023/03/15 05:31:53;;;;;;;5.37;1.90;;;;;;;;;;5066693;28;20205;-24
2023/03/15 05:34:23;;;;;;;2.03;1.90;;;;;;;;;;5079443;28;20211;-37
2023/03/15 05:36:50;;;;;;;2.30;1.60;;;;;;;;;;5086814;28;20243;-23
2023/03/15 05:39:21;;;;;;;4.97;1.97;;;;;;;;;;5079746;28;20297;-24
2023/03/15 05:41:48;;;;;;;3.37;1.90;;;;;;;;;;5077279;28;20212;-28
2023/03/15 05:44:15;;;;;;;3.67;2.23;;;;;;;;;;5079370;28;20215;-26
2023/03/15 05:46:42;;;;;;;3.43;2.30;;;;;;;;;;5074896;28;20225;-21
2023/03/15 05:49:10;;;;;;;3.97;2.03;;;;;;;;;;5083789;28;20200;-25
2023/03/15 05:51:37;;;;;;;5.03;2.43;;;;;;;;;;5089380;28;20216;-26
2023/03/15 05:54:05;;;;;;;4.80;1.90;;;;;;;;;;5085020;28;20205;-26
2023/03/15 05:56:33;;;;;;;5.30;1.73;;;;;;;;;;5074103;28;20225;-25
2023/03/15 05:59:01;;;;;;;6.63;2.00;;;;;;;;;;5078334;28;20224;-26
2023/03/15 06:01:29;;;;;;;4.90;1.63;;;;;;;;;;5086573;28;20228;-27
2023/03/15 06:03:56;;;;;;;4.57;2.07;;;;;;;;;;5082316;28;20250;-23
2023/03/15 06:06:55;;;;;;;4.03;1.70;;;;;;;;;;5081717;28;20233;-25
2023/03/15 06:09:24;;;;;;;4.00;1.80;;;;;;;;;;5087992;28;20192;-25
2023/03/15 06:15:03;;;;;;;3.90;1.70;;;;;;;;;;5075453;28;20196;-25
2023/03/15 06:17:30;;;;;;;4.50;1.50;;;;;;;;;;5070655;28;20232;-22
2023/03/15 06:19:57;;;;;;;2.83;1.70;;;;;;;;;;5070518;28;20225;-23
2023/03/15 06:22:24;;;;;;;4.63;2.97;;;;;;;;;;5069985;28;20205;-26
2023/03/15 06:24:51;;;;;;;4.10;1.77;;;;;;;;;;5074411;28;20197;-26
2023/03/15 06:27:20;;;;;;;2.30;1.73;;;;;;;;;;5070660;28;20232;-24
2023/03/15 06:29:47;;;;;;;6.40;2.13;;;;;;;;;;5075176;28;20201;-24
2023/03/15 06:32:16;;;;;;;3.30;2.00;;;;;;;;;;5088455;28;20204;-24
2023/03/15 06:34:43;;;;;;;2.53;1.73;;;;;;;;;;5068734;28;20209;-26
2023/03/15 06:37:12;;;;;;;3.00;1.90;;;;;;;;;;5071885;28;20224;-26
2023/03/15 06:39:39;;;;;;;2.90;2.30;;;;;;;;;;5079138;28;20224;-23
2023/03/15 06:42:08;;;;;;;4.27;2.57;;;;;;;;;;5072756;28;20210;-25
2023/03/15 06:44:35;;;;;;;4.87;2.70;;;;;;;;;;5079216;28;20234;-25
2023/03/15 06:47:02;;;;;;;5.67;2.43;;;;;;;;;;5084075;28;20240;-21
2023/03/15 06:49:31;;;;;;;4.07;2.60;;;;;;;;;;5092377;28;20196;-24
2023/03/15 06:51:58;;;;;;;2.80;1.83;;;;;;;;;;5086027;28;20204;-24
2023/03/15 06:54:25;;;;;;;3.93;2.10;;;;;;;;;;5080492;28;20209;-25
2023/03/15 06:56:52;;;;;;;3.83;1.40;;;;;;;;;;5079613;28;20281;-24
2023/03/15 06:59:20;;;;;;;3.40;1.77;;;;;;;;;;5086202;28;20219;-26
2023/03/15 07:01:49;;;;;;;5.03;1.90;;;;;;;;;;5073628;28;20301;-24
2023/03/15 07:04:16;;;;;;;4.20;1.87;;;;;;;;;;5071946;28;20204;-23
2023/03/15 07:06:44;;;;;;;3.57;1.93;;;;;;;;;;5072646;28;20225;-28
2023/03/15 07:09:12;;;;;;;2.63;1.70;;;;;;;;;;5078163;28;20232;-27
2023/03/15 07:11:39;;;;;;;3.53;1.90;;;;;;;;;;5072499;28;20213;-23
2023/03/15 07:14:06;;;;;;;5.13;1.77;;;;;;;;;;5077021;28;20215;-23
2023/03/15 07:16:33;;;;;;;7.53;1.97;;;;;;;;;;5087529;28;20220;-26
2023/03/15 07:19:01;;;;;;;2.83;1.60;;;;;;;;;;5077986;28;20204;-25
2023/03/15 07:21:28;;;;;;;3.40;1.60;;;;;;;;;;5071939;28;20205;-26
2023/03/15 07:24:06;;;;;;;2.70;1.93;;;;;;;;;;5080371;28;20204;-24
2023/03/15 07:26:33;;;;;;;4.80;2.20;;;;;;;;;;5081996;28;20225;-23
2023/03/15 07:29:00;;;;;;;1.47;1.37;;;;;;;;;;5086230;28;20666;-28
2023/03/15 07:31:28;;;;;;;4.43;1.60;;;;;;;;;;5086616;28;20230;-26
2023/03/15 07:33:55;;;;;;;4.23;1.83;;;;;;;;;;5073413;28;20212;-25
2023/03/15 07:36:22;;;;;;;5.17;1.70;;;;;;;;;;5074419;28;20648;-26
2023/03/15 07:38:49;;;;;;;4.50;1.93;;;;;;;;;;5071070;28;20223;-27
2023/03/15 07:41:18;;;;;;;4.23;1.50;;;;;;;;;;5087616;28;20308;-23
2023/03/15 07:43:45;;;;;;;7.17;1.90;;;;;;;;;;5069065;28;20205;-26
2023/03/15 07:46:12;;;;;;;2.43;1.50;;;;;;;;;;5068325;28;20216;-27
2023/03/15 07:48:39;;;;;;;3.80;1.97;;;;;;;;;;5086719;28;20207;-25
2023/03/15 07:51:07;;;;;;;4.10;2.13;;;;;;;;;;5087973;28;20192;-25
2023/03/15 07:53:34;;;;;;;1.90;1.30;;;;;;;;;;5076144;28;20208;-24
2023/03/15 07:56:01;;;;;;;4.17;1.80;;;;;;;;;;5074388;28;20197;-29
2023/03/15 07:58:29;;;;;;;3.97;1.90;;;;;;;;;;5083034;28;20204;-23
2023/03/15 08:00:57;;;;;;;3.73;1.60;;;;;;;;;;5075740;28;20264;-26
2023/03/15 08:03:25;;;;;;;3.30;1.60;;;;;;;;;;5080372;28;20198;-27
2023/03/15 08:05:52;;;;;;;3.97;1.27;;;;;;;;;;5075749;28;20300;-25
2023/03/15 08:08:20;;;;;;;2.93;1.23;;;;;;;;;;5071042;28;20265;-24
2023/03/15 08:10:47;;;;;;;4.07;1.53;;;;;;;;;;5076550;28;20490;-26
2023/03/15 08:13:14;;;;;;;5.60;2.20;;;;;;;;;;5077905;28;20205;-29
2023/03/15 08:15:45;;;;;;;1.23;1.00;;;;;;;;;;5071280;28;20207;-28
2023/03/15 08:18:12;;;;;;;4.30;1.40;;;;;;;;;;5077399;28;20232;-25
2023/03/15 08:20:39;;;;;;;2.90;1.33;;;;;;;;;;5068178;28;20229;-25
2023/03/15 08:23:08;;;;;;;4.50;1.43;;;;;;;;;;5076455;28;20256;-24
2023/03/15 08:25:35;;;;;;;3.27;1.23;;;;;;;;;;5074679;28;20206;-23
2023/03/15 08:28:02;;;;;;;4.87;1.80;;;;;;;;;;5074239;28;20237;-27
2023/03/15 08:30:29;;;;;;;6.13;1.33;;;;;;;;;;5072460;28;20209;-23
2023/03/15 08:33:00;;;;;;;6.87;1.67;;;;;;;;;;5082235;28;20279;-25
2023/03/15 08:35:27;;;;;;;2.50;1.20;;;;;;;;;;5077784;28;20208;-28
2023/03/15 08:37:54;;;;;;;4.07;1.37;;;;;;;;;;5073985;28;20224;-27
2023/03/15 08:40:24;;;;;;;3.73;1.10;;;;;;;;;;5073596;28;20225;-28
2023/03/15 08:42:52;;;;;;;2.87;1.17;;;;;;;;;;5080800;28;20201;-25
2023/03/15 08:45:19;;;;;;;5.87;1.20;;;;;;;;;;5074621;28;20291;-26
2023/03/15 08:47:46;;;;;;;3.80;1.13;;;;;;;;;;5068374;28;20229;-24
2023/03/15 08:50:15;;;;;;;5.43;1.40;;;;;;;;;;5070641;28;20201;-22
2023/03/15 08:52:43;;;;;;;2.20;1.00;;;;;;;;;;5073841;28;20205;-25
2023/03/15 08:55:13;;;;;;;2.37;1.07;;;;;;;;;;5073178;28;20220;-25
2023/03/15 08:57:40;;;;;;;3.23;1.07;;;;;;;;;;5071753;28;20225;-26
2023/03/15 09:00:08;;;;;;;1.93;1.00;;;;;;;;;;5081138;28;20239;-26
2023/03/15 09:02:35;;;;;;;2.53;1.00;;;;;;;;;;5079789;28;20209;-23
2023/03/15 09:05:03;;;;;;;1.33;1.13;;;;;;;;;;5078051;28;20221;-24
2023/03/15 09:07:31;;;;;;;1.60;0.97;;;;;;;;;;5076610;28;20314;-22
2023/03/15 09:09:58;;;;;;;3.90;1.07;;;;;;;;;;5071076;28;20249;-26
2023/03/15 09:12:26;;;;;;;4.70;0.73;;;;;;;;;;5081077;28;20208;-25
2023/03/15 09:14:54;;;;;;;1.67;0.80;;;;;;;;;;5078870;28;20201;-24
2023/03/15 09:17:21;;;;;;;1.97;1.07;;;;;;;;;;5070061;28;20230;-24
2023/03/15 09:19:49;;;;;;;3.97;1.37;;;;;;;;;;5073145;28;20198;-26
2023/03/15 09:22:16;;;;;;;1.47;0.90;;;;;;;;;;5074758;28;20273;-22
2023/03/15 09:24:44;;;;;;;2.47;0.80;;;;;;;;;;5073494;28;20200;-28
2023/03/15 09:27:12;;;;;;;2.43;0.80;;;;;;;;;;5029498;28;1230460;-25
2023/03/15 09:29:39;;;;;;;1.47;0.90;;;;;;;;;;5075202;28;20247;-22
2023/03/15 09:32:06;;;;;;;2.60;0.90;;;;;;;;;;5078920;28;20284;-26
2023/03/15 09:34:36;;;;;;;4.27;1.20;;;;;;;;;;5069719;28;20202;-26
2023/03/15 09:37:03;;;;;;;2.10;0.93;;;;;;;;;;5074819;28;20289;-27
2023/03/15 09:39:32;;;;;;;2.80;0.97;;;;;;;;;;5075058;28;20201;-23
2023/03/15 09:42:03;;;;;;;4.80;1.00;;;;;;;;;;5077531;28;20220;-26
2023/03/15 09:44:38;;;;;;;3.70;1.23;;;;;;;;;;5080040;28;20262;-26
2023/03/15 09:47:10;;;;;;;5.17;1.13;;;;;;;;;;5074695;28;20231;-25
2023/03/15 09:49:42;;;;;;;2.57;1.00;;;;;;;;;;5073182;28;20201;-26
2023/03/15 09:52:14;;;;;;;2.70;0.87;;;;;;;;;;5086070;28;20242;-24
2023/03/15 09:54:43;;;;;;;2.30;0.87;;;;;;;;;;5086059;28;20481;-27
2023/03/15 09:57:15;;;;;;;2.20;0.90;;;;;;;;;;5081225;28;20235;-23
2023/03/15 09:59:45;;;;;;;2.33;0.80;;;;;;;;;;5075122;28;20193;-26
2023/03/15 10:02:16;;;;;;;4.27;0.90;;;;;;;;;;5082118;28;20240;-21
2023/03/15 10:04:44;;;;;;;2.60;0.97;;;;;;;;;;5079700;28;20190;-27
2023/03/15 10:07:13;;;;;;;2.80;1.03;;;;;;;;;;5071382;28;20231;-24
2023/03/15 10:09:40;;;;;;;4.40;1.27;;;;;;;;;;5083317;28;20609;-24
2023/03/15 10:12:10;;;;;;;2.97;0.67;;;;;;;;;;5081455;28;20226;-27
2023/03/15 10:14:49;;;;;;;3.10;0.70;;;;;;;;;;5077657;28;20193;-27
2023/03/15 10:17:20;;;;;;;0.73;0.40;;;;;;;;;;5079340;28;20227;-25
2023/03/15 10:19:49;;;;;;;1.60;0.70;;;;;;;;;;5072781;28;20207;-23
2023/03/15 10:22:21;;;;;;;3.53;0.90;;;;;;;;;;5077047;28;20351;-24
2023/03/15 10:24:51;;;;;;;0.80;0.80;;;;;;;;;;5081394;28;20208;-25
2023/03/15 10:27:21;;;;;;;1.37;0.70;;;;;;;;;;5074673;28;20230;-26
2023/03/15 10:29:50;;;;;;;3.27;0.87;;;;;;;;;;5077305;28;20199;-24
2023/03/15 10:32:18;;;;;;;3.90;0.97;;;;;;;;;;5072320;28;20201;-27
2023/03/15 10:34:48;;;;;;;4.37;0.90;;;;;;;;;;5067215;28;20204;-27
2023/03/15 10:37:15;;;;;;;4.70;0.87;;;;;;;;;;5075356;28;20220;-24
2023/03/15 10:39:45;;;;;;;1.83;1.00;;;;;;;;;;5071827;28;20205;-24
2023/03/15 10:42:23;;;;;;;1.70;0.97;;;;;;;;;;5072616;28;20279;-25
2023/03/15 10:44:52;;;;;;;2.10;1.10;;;;;;;;;;5066897;28;20212;-27
2023/03/15 10:47:20;;;;;;;3.77;0.80;;;;;;;;;;5070001;28;20221;-24
2023/03/15 10:49:48;;;;;;;2.17;0.97;;;;;;;;;;5067986;28;20197;-23
2023/03/15 10:52:28;;;;;;;1.90;0.83;;;;;;;;;;5064416;28;20218;-25
2023/03/15 10:54:55;;;;;;;4.87;0.93;;;;;;;;;;5075489;28;20244;-25
2023/03/15 10:57:25;;;;;;;1.27;0.60;;;;;;;;;;5073571;28;20225;-22
2023/03/15 11:00:05;;;;;;;3.10;0.80;;;;;;;;;;5068162;28;20209;-26
2023/03/15 11:02:32;;;;;;;1.77;0.80;;;;;;;;;;5083806;28;20220;-26
2023/03/15 11:05:01;;;;;;;2.20;1.10;;;;;;;;;;5087798;28;20201;-22
2023/03/15 11:07:28;;;;;;;1.80;1.13;;;;;;;;;;5076576;28;20225;-27
2023/03/15 11:09:59;;;;;;;5.23;1.13;;;;;;;;;;5079440;28;20230;-28
2023/03/15 11:12:27;;;;;;;1.63;0.93;;;;;;;;;;5074140;28;20197;-25
2023/03/15 11:14:58;;;;;;;2.57;1.00;;;;;;;;;;5078790;28;20207;-25
2023/03/15 11:17:28;;;;;;;1.60;0.90;;;;;;;;;;5062786;28;20225;-24
2023/03/15 11:19:56;;;;;;;2.90;1.17;;;;;;;;;;5066505;28;20205;-23
2023/03/15 11:22:24;;;;;;;1.50;1.10;;;;;;;;;;5066136;28;20225;-26
2023/03/15 11:24:51;;;;;;;0.83;0.80;;;;;;;;;;5082523;28;20197;-24
2023/03/15 11:27:20;;;;;;;1.57;0.90;;;;;;;;;;5076634;28;20229;-23
2023/03/15 11:29:48;;;;;;;1.17;0.87;;;;;;;;;;5062482;28;20204;-22
2023/03/15 11:32:17;;;;;;;2.03;1.00;;;;;;;;;;5067934;28;20216;-25
2023/03/15 11:34:48;;;;;;;3.60;1.47;;;;;;;;;;5065707;28;20193;-25
2023/03/15 11:37:17;;;;;;;1.30;0.77;;;;;;;;;;5083281;28;20244;-22
2023/03/15 11:39:46;;;;;;;2.77;0.90;;;;;;;;;;5080416;28;20208;-26
2023/03/15 11:42:23;;;;;;;2.83;0.90;;;;;;;;;;5074634;28;20472;-28
2023/03/15 11:45:02;;;;;;;0.80;0.70;;;;;;;;;;5074856;28;20200;-24
2023/03/15 11:47:42;;;;;;;1.03;0.80;;;;;;;;;;5080694;28;20240;-25
2023/03/15 11:50:12;;;;;;;1.07;0.57;;;;;;;;;;5091115;28;20237;-26
2023/03/15 11:52:40;;;;;;;2.93;0.77;;;;;;;;;;5089983;28;20185;-24
2023/03/15 11:55:16;;;;;;;2.47;0.90;;;;;;;;;;5077274;28;20225;-23
2023/03/15 11:57:44;;;;;;;2.27;0.90;;;;;;;;;;5085801;28;20236;-26
2023/03/15 12:00:45;;;;;;;2.30;0.80;;;;;;;;;;5087758;28;20215;-24
2023/03/15 12:03:33;;;;;;;1.13;0.70;;;;;;;;;;5066404;28;20314;-26
2023/03/15 12:06:04;;;;;;;3.10;0.90;;;;;;;;;;5066733;28;20227;-27
2023/03/15 12:08:41;;;;;;;7.50;0.90;;;;;;;;;;5065722;28;20436;-24
2023/03/15 12:11:11;;;;;;;1.07;0.80;;;;;;;;;;5073572;28;20201;-25
2023/03/15 12:13:38;;;;;;;0.93;0.77;;;;;;;;;;5076353;28;20207;-25
2023/03/15 12:16:07;;;;;;;0.23;0.23;;;;;;;;;;5083439;28;20212;-23
2023/03/15 12:18:39;;;;;;;0.57;0.57;;;;;;;;;;5090201;28;20208;-24
2023/03/15 12:21:15;;;;;;;2.63;0.90;;;;;;;;;;5074282;28;20296;-26
2023/03/15 12:23:47;;;;;;;2.73;0.43;;;;;;;;;;5089364;28;20252;-23
2023/03/15 12:26:23;;;;;;;2.23;0.60;;;;;;;;;;5082450;28;20508;-26
2023/03/15 12:28:52;;;;;;;0.97;0.57;;;;;;;;;;5085677;28;20205;-26
2023/03/15 12:31:20;;;;;;;0.93;0.40;;;;;;;;;;5092253;28;20208;-26
2023/03/15 12:33:49;;;;;;;0.20;0.20;;;;;;;;;;5073135;28;20205;-28
2023/03/15 12:36:20;;;;;;;0.93;0.57;;;;;;;;;;5073774;28;20206;-23
2023/03/15 12:38:54;;;;;;;2.43;0.87;;;;;;;;;;5075121;28;20235;-24
2023/03/15 12:41:34;;;;;;;2.07;1.90;;;;;;;;;;5081457;28;20212;-26
2023/03/15 12:44:16;;;;;;;0.80;0.80;;;;;;;;;;5072930;28;20205;-26
2023/03/15 12:46:59;;;;;;;1.53;0.80;;;;;;;;;;5088555;28;20229;-23
2023/03/15 12:49:34;;;;;;;4.80;1.20;;;;;;;;;;5090614;28;20296;-25
2023/03/15 12:52:05;;;;;;;2.50;0.60;;;;;;;;;;5089415;28;20215;-23
2023/03/15 12:54:34;;;;;;;5.27;0.90;;;;;;;;;;5090994;28;20214;-26
2023/03/15 12:57:02;;;;;;;3.20;0.83;;;;;;;;;;5088659;28;20231;-24
2023/03/15 12:59:32;;;;;;;1.80;0.63;;;;;;;;;;5089002;28;20204;-27
2023/03/15 13:02:00;;;;;;;3.03;0.70;;;;;;;;;;5074069;28;20225;-25
2023/03/15 13:04:29;;;;;;;1.00;0.70;;;;;;;;;;5073365;28;20212;-26
2023/03/15 13:07:08;;;;;;;3.03;0.80;;;;;;;;;;5072390;28;20228;-23
2023/03/15 13:09:44;;;;;;;0.97;0.60;;;;;;;;;;5090745;28;20204;-21
2023/03/15 13:12:15;;;;;;;1.07;0.60;;;;;;;;;;5084802;28;20226;-25
2023/03/15 13:14:44;;;;;;;3.23;0.80;;;;;;;;;;5088924;28;20207;-26
2023/03/15 13:17:17;;;;;;;2.03;0.80;;;;;;;;;;5077050;28;20237;-24
2023/03/15 13:19:45;;;;;;;1.03;0.70;;;;;;;;;;5092440;28;20196;-22
2023/03/15 13:22:16;;;;;;;4.90;0.90;;;;;;;;;;5089546;28;20221;-23
2023/03/15 13:24:48;;;;;;;3.40;1.10;;;;;;;;;;5078344;28;20209;-24
2023/03/15 13:27:22;;;;;;;2.83;1.00;;;;;;;;;;5077306;28;20284;-26
2023/03/15 13:29:49;;;;;;;4.43;1.20;;;;;;;;;;5084837;28;20196;-25
2023/03/15 13:32:18;;;;;;;2.97;1.00;;;;;;;;;;5091327;28;20262;-23
2023/03/15 13:34:46;;;;;;;1.67;1.17;;;;;;;;;;5073453;28;20258;-26
2023/03/15 13:37:25;;;;;;;1.27;0.97;;;;;;;;;;5078013;28;20220;-26
2023/03/15 13:39:58;;;;;;;3.20;1.07;;;;;;;;;;5084719;28;20197;-25
2023/03/15 13:42:25;;;;;;;1.30;1.13;;;;;;;;;;5092765;28;20216;-24
2023/03/15 13:45:03;;;;;;;2.60;1.13;;;;;;;;;;5088530;28;20193;-27
2023/03/15 13:47:30;;;;;;;2.80;1.30;;;;;;;;;;5075906;28;20240;-28
2023/03/15 13:49:57;;;;;;;1.50;1.30;;;;;;;;;;5093345;28;20208;-26
2023/03/15 13:52:25;;;;;;;3.70;1.17;;;;;;;;;;5092431;28;20205;-28
2023/03/15 13:54:54;;;;;;;4.27;1.10;;;;;;;;;;5080519;28;20201;-25
2023/03/15 13:57:22;;;;;;;1.90;1.13;;;;;;;;;;5082282;28;20225;-24
2023/03/15 13:59:52;;;;;;;3.27;1.37;;;;;;;;;;5080444;28;20208;-27
2023/03/15 14:02:23;;;;;;;2.77;1.23;;;;;;;;;;5091330;28;20223;-28
2023/03/15 14:04:52;;;;;;;4.50;1.53;;;;;;;;;;5092856;28;20201;-25
2023/03/15 14:07:25;;;;;;;2.77;1.30;;;;;;;;;;5092275;28;20224;-24
2023/03/15 14:12:58;;;;;;;3.47;1.13;;;;;;;;;;5109310;27;20523;-31
2023/03/15 14:15:26;;;;;;;3.27;1.20;;;;;;;;;;5102523;28;20215;-32
2023/03/15 14:17:54;;;;;;;2.03;1.30;;;;;;;;;;5109372;28;20216;-33
2023/03/15 14:20:27;;;;;;;2.73;1.50;;;;;;;;;;5109426;28;20207;-32
2023/03/15 14:22:57;;;;;;;2.90;1.40;;;;;;;;;;5101744;28;20224;-31
2023/03/15 14:25:24;;;;;;;3.87;1.50;;;;;;;;;;5105528;28;20203;-28
2023/03/15 14:27:51;;;;;;;1.40;1.00;;;;;;;;;;5109454;28;20224;-35
2023/03/15 14:30:21;;;;;;;2.57;1.50;;;;;;;;;;5104850;28;20200;-34
2023/03/15 14:32:52;;;;;;;1.07;1.07;;;;;;;;;;5108846;28;20224;-31
2023/03/15 14:35:22;;;;;;;7.83;3.03;;;;;;;;;;5109457;28;20211;-28
2023/03/15 14:37:49;;;;;;;4.63;1.37;;;;;;;;;;5104578;28;20232;-29
2023/03/15 14:40:19;;;;;;;5.50;1.60;;;;;;;;;;5108106;28;20214;-34
2023/03/15 14:42:47;;;;;;;1.27;1.17;;;;;;;;;;5107564;28;20200;-28
2023/03/15 14:45:14;;;;;;;3.60;1.47;;;;;;;;;;5099578;28;20204;-27
2023/03/15 14:47:58;;;;;;;3.73;1.17;;;;;;;;;;5107461;28;20764;-28
2023/03/15 14:50:29;;;;;;;1.43;0.90;;;;;;;;;;5109216;28;20195;-33
2023/03/15 14:52:57;;;;;;;4.43;1.13;;;;;;;;;;5101270;28;20208;-34
2023/03/15 14:55:32;;;;;;;2.50;1.20;;;;;;;;;;5108116;28;20208;-32
2023/03/15 14:57:59;;;;;;;0.73;0.73;;;;;;;;;;5108943;28;20234;-27
2023/03/15 15:00:27;;;;;;;1.43;0.80;;;;;;;;;;5101287;28;20212;-30